Allamuchy, NJ

12:08 AM EDT on August 31, 2015 (GMT -0400)
Panther Valley - Bowers Glen Upper | | Change Station
CLOSE
Current Station
Personal Weather Station
Location: Allamuchy, NJ
Elevation: 925 ft
Nearby Weather Stations

Elev 925 ft 40.90 °N, 74.85 °W | Updated 46 seconds ago

Partly Cloudy
Partly Cloudy
71.3 °F
Feels Like 70 °F
N
0.0
Wind Variable Wind from ESE
Gusts 0.0 mph

Today
High -- | Low -- °F
--% Chance of Precip.
Yesterday
High -- | Low -- °F
Precip. -- in
6:24 AM 7:33 PM
Full, 97% visible
Pressure 30.03 in
Visibility 9.0 miles
Clouds Clear
Heat Index 70 °F
Dew Point 66 °F
Humidity 84%
Rainfall 0.00 in
Snow Depth Not available.
UV 0 out of 12
Pollen 10.30 out of 12
Air Quality Not available.
Flu Activity Not available.
METAR KSMQ 310353Z AUTO 00000KT 9SM CLR 22/19 A3004 RMK AO2 SLP169 T02220194
Pressure 30.03 in
Visibility 9.0 miles
Clouds Clear
Heat Index 70 °F
Dew Point 66 °F
Humidity 84%
Rainfall 0.00 in
Snow Depth Not available.
UV 0 out of 12
Pollen 10.30 out of 12
Air Quality Not available.
Flu Activity Not available.
METAR KSMQ 310353Z AUTO 00000KT 9SM CLR 22/19 A3004 RMK AO2 SLP169 T02220194

10-Day Weather Forecast

×

Almanac

Astronomy

Aug. 31, 2015 Rise Set
Actual Time
Civil Twilight
Nautical Twilight
Astronomical Twilight
Moon
Length of Visible Light
Length of Day
Tomorrow will be .
, % of the Moon is Illuminated

Today's Extremes

State Highs State Lows

Community

WunderPhotos

Upload Photos

1,851,194 photos uploaded!

WunderBlogs® & News

Nearby

Air Quality

  Air Quality AQ Index Pollutant
Not available.

Snow Depth

Station Depth Elevation

Earthquake Activity

City Distance Mag. Time & Date
Minimum magnitude displayed is 2.5.

Coastal Water Temperatures

Place Temperature

Stations

Nearby Weather Stations

Station Location Temp. Windchill Dew Point Humidity Wind Precip. Elev Updated Type